Time;durP1;ratioP1;P1;durP2;ratioP2;P2;SDS_P1;SDS_P2;PMS_P1;PMS_P2;Temp;Humidity;BMP_temperature;BMP_pressure;BME280_temperature;BME280_humidity;BME280_pressure;Samples;Min_cycle;Max_cycle;Signal;HPM_P1;HPM_P2
2024/02/08 00:01:10;;;;;;;0.00;0.00;;;;;;;;;;4986455;28;20420;-91
2024/02/08 00:03:36;;;;;;;0.00;0.00;;;;;;;;;;4983736;28;20033;-91
2024/02/08 00:06:02;;;;;;;0.10;0.10;;;;;;;;;;4979768;28;20314;-92
2024/02/08 00:08:28;;;;;;;0.10;0.10;;;;;;;;;;4983796;28;20030;-91
2024/02/08 00:10:54;;;;;;;0.10;0.10;;;;;;;;;;4985409;28;20022;-90
2024/02/08 00:13:20;;;;;;;0.10;0.10;;;;;;;;;;4987533;28;20052;-92
2024/02/08 00:15:46;;;;;;;0.00;0.00;;;;;;;;;;4987104;28;20098;-91
2024/02/08 00:18:12;;;;;;;0.10;0.10;;;;;;;;;;4985924;28;20438;-91
2024/02/08 00:20:38;;;;;;;0.00;0.00;;;;;;;;;;4984688;28;20054;-91
2024/02/08 00:23:04;;;;;;;0.10;0.10;;;;;;;;;;4985069;28;20081;-91
2024/02/08 00:25:30;;;;;;;0.00;0.00;;;;;;;;;;4986186;28;20057;-91
2024/02/08 00:27:56;;;;;;;0.10;0.10;;;;;;;;;;4985200;28;20039;-91
2024/02/08 00:30:22;;;;;;;0.05;0.05;;;2.00;99.90;;;;;;4984113;28;20035;-92
2024/02/08 00:32:48;;;;;;;0.10;0.10;;;;;;;;;;4985861;28;20026;-91
2024/02/08 00:35:18;;;;;;;0.10;0.10;;;2.00;99.90;;;;;;4984071;28;20022;-91
2024/02/08 00:37:49;;;;;;;0.00;0.00;;;1.90;99.90;;;;;;4981583;28;20038;-91
2024/02/08 00:40:16;;;;;;;0.10;0.10;;;2.00;99.90;;;;;;4988220;28;20053;-91
2024/02/08 00:42:42;;;;;;;0.10;0.10;;;;;;;;;;4987463;28;20100;-91
2024/02/08 00:45:11;;;;;;;0.00;0.00;;;2.00;99.90;;;;;;4985578;28;20023;-91
2024/02/08 00:47:38;;;;;;;0.03;0.03;;;;;;;;;;4985106;28;20019;-91
2024/02/08 00:50:07;;;;;;;0.10;0.10;;;2.10;99.90;;;;;;4984293;28;20072;-91
2024/02/08 00:52:33;;;;;;;0.10;0.10;;;;;;;;;;4984067;28;20040;-91
2024/02/08 00:55:02;;;;;;;0.08;0.08;;;2.10;99.90;;;;;;4985394;28;20028;-86
2024/02/08 00:57:32;;;;;;;0.10;0.10;;;;;;;;;;4986348;28;20121;-91
2024/02/08 00:59:58;;;;;;;;;;;2.10;99.90;;;;;;4989554;28;20109;-90
2024/02/08 01:02:24;;;;;;;0.00;0.00;;;;;;;;;;4984183;28;20000;-90
2024/02/08 01:04:50;;;;;;;0.10;0.10;;;;;;;;;;4985996;28;20057;-91
2024/02/08 01:07:16;;;;;;;0.10;0.10;;;;;;;;;;4986784;28;20054;-90
2024/02/08 01:09:42;;;;;;;0.10;0.10;;;;;;;;;;4988439;28;20018;-91
2024/02/08 01:12:09;;;;;;;0.10;0.10;;;;;;;;;;4992646;28;20076;-92
2024/02/08 01:14:35;;;;;;;0.10;0.10;;;;;;;;;;4987726;28;20030;-91
2024/02/08 01:17:04;;;;;;;0.10;0.10;;;;;;;;;;4985376;28;20555;-91
2024/02/08 01:19:31;;;;;;;0.00;0.00;;;;;;;;;;4978379;28;20034;-91
2024/02/08 01:21:57;;;;;;;0.10;0.10;;;;;;;;;;4986989;28;20494;-92
2024/02/08 01:24:23;;;;;;;0.10;0.10;;;;;;;;;;4987024;28;20032;-91
2024/02/08 01:26:49;;;;;;;0.10;0.10;;;;;;;;;;4994299;28;20042;-91
2024/02/08 01:29:15;;;;;;;0.10;0.10;;;;;;;;;;4985354;28;20106;-91
2024/02/08 01:31:41;;;;;;;0.10;0.10;;;;;;;;;;4984750;28;20050;-91
2024/02/08 01:34:08;;;;;;;0.10;0.10;;;1.90;99.90;;;;;;4980934;28;20026;-91
2024/02/08 01:36:38;;;;;;;0.10;0.10;;;1.90;99.90;;;;;;4987115;28;20481;-91
2024/02/08 01:39:12;;;;;;;;;;;1.90;99.90;;;;;;4986477;28;20030;-88
2024/02/08 01:41:39;;;;;;;0.10;0.10;;;;;;;;;;4983507;28;19910;-88
2024/02/08 01:44:08;;;;;;;0.10;0.10;;;;;;;;;;4985281;28;20030;-91
2024/02/08 01:46:38;;;;;;;0.10;0.10;;;;;;;;;;4996161;28;20110;-91
2024/02/08 01:49:06;;;;;;;0.08;0.08;;;1.90;99.90;;;;;;4985460;28;20023;-90
2024/02/08 01:51:32;;;;;;;0.10;0.10;;;;;;;;;;4984369;28;20045;-91
2024/02/08 01:54:01;;;;;;;0.00;0.00;;;;;;;;;;4979156;28;20034;-91
2024/02/08 01:56:27;;;;;;;0.10;0.10;;;;;;;;;;4984777;28;20030;-91
2024/02/08 01:58:53;;;;;;;0.10;0.10;;;;;;;;;;4982736;28;20064;-90
2024/02/08 02:01:22;;;;;;;0.10;0.10;;;;;;;;;;4996556;28;20473;-91
2024/02/08 02:03:48;;;;;;;0.10;0.10;;;;;;;;;;4985784;28;20034;-92
2024/02/08 02:06:14;;;;;;;0.10;0.10;;;;;;;;;;4986748;28;20122;-91
2024/02/08 02:08:41;;;;;;;0.00;0.00;;;;;;;;;;5000436;28;20401;-91
2024/02/08 02:11:35;;;;;;;0.00;0.00;;;2.10;99.90;;;;;;4986625;28;20028;-91
2024/02/08 02:14:06;;;;;;;0.08;0.08;;;2.30;99.90;;;;;;4984466;28;20034;-91
2024/02/08 02:16:32;;;;;;;0.10;0.10;;;;;;;;;;5003535;28;20035;-91
2024/02/08 02:18:58;;;;;;;0.10;0.10;;;;;;;;;;5000639;28;20069;-91
2024/02/08 02:21:27;;;;;;;0.03;0.03;;;2.30;99.90;;;;;;5012140;28;20023;-90
2024/02/08 02:23:52;;;;;;;0.10;0.10;;;;;;;;;;4995246;28;20030;-90
2024/02/08 02:26:19;;;;;;;0.00;0.00;;;;;;;;;;4983407;28;20031;-91
2024/02/08 02:28:45;;;;;;;0.10;0.10;;;2.40;99.90;;;;;;4985614;28;20031;-90
2024/02/08 02:31:13;;;;;;;0.10;0.10;;;;;;;;;;4995864;28;20039;-91
2024/02/08 02:33:44;;;;;;;0.10;0.10;;;2.30;99.90;;;;;;4985737;28;20026;-89
2024/02/08 02:36:14;;;;;;;0.10;0.10;;;;;;;;;;4983834;28;20062;-88
2024/02/08 02:38:41;;;;;;;0.10;0.10;;;2.40;99.90;;;;;;4984715;28;20037;-91
2024/02/08 02:41:07;;;;;;;0.00;0.00;;;;;;;;;;4983851;28;20038;-91
2024/02/08 02:43:34;;;;;;;0.03;0.03;;;2.30;99.90;;;;;;4983449;28;20137;-91
2024/02/08 02:46:00;;;;;;;0.10;0.10;;;;;;;;;;4986757;28;20035;-90
2024/02/08 02:48:26;;;;;;;0.10;0.10;;;;;;;;;;4994781;28;20744;-91
2024/02/08 02:50:52;;;;;;;0.10;0.10;;;;;;;;;;4991781;28;20326;-91
2024/02/08 02:53:18;;;;;;;0.10;0.10;;;;;;;;;;4984869;28;20117;-91
2024/02/08 02:55:45;;;;;;;0.10;0.10;;;;;;;;;;4984078;28;20449;-91
2024/02/08 02:58:12;;;;;;;0.00;0.00;;;;;;;;;;4984760;28;20034;-91
2024/02/08 03:00:38;;;;;;;0.00;0.00;;;;;;;;;;4988579;28;20118;-91
2024/02/08 03:03:12;;;;;;;0.10;0.10;;;2.30;99.90;;;;;;4990614;28;20038;-91
2024/02/08 03:05:46;;;;;;;0.10;0.10;;;2.30;99.90;;;;;;4988990;28;20099;-91
2024/02/08 03:08:12;;;;;;;0.05;0.05;;;;;;;;;;4980667;28;20039;-92
2024/02/08 03:10:38;;;;;;;0.10;0.10;;;;;;;;;;4988098;28;20492;-91
2024/02/08 03:13:04;;;;;;;0.10;0.10;;;;;;;;;;4990258;28;20041;-92
2024/02/08 03:15:30;;;;;;;0.10;0.10;;;;;;;;;;4990500;28;20062;-91
2024/02/08 03:17:56;;;;;;;0.00;0.00;;;;;;;;;;4988096;28;20525;-91
2024/02/08 03:20:29;;;;;;;0.10;0.10;;;;;;;;;;4988872;28;20040;-91
2024/02/08 03:22:56;;;;;;;0.10;0.10;;;;;;;;;;4987328;28;20130;-91
2024/02/08 03:25:22;;;;;;;0.00;0.00;;;;;;;;;;4988207;28;20026;-91
2024/02/08 03:27:51;;;;;;;0.08;0.08;;;;;;;;;;4988370;28;20034;-92
2024/02/08 03:30:22;;;;;;;0.00;0.00;;;;;;;;;;4986942;28;20026;-91
2024/02/08 03:32:52;;;;;;;0.00;0.00;;;;;;;;;;4990491;28;20049;-91
2024/02/08 03:35:19;;;;;;;0.10;0.10;;;;;;;;;;4987980;28;20041;-91
2024/02/08 03:37:48;;;;;;;0.10;0.10;;;;;;;;;;4989075;28;20108;-92
2024/02/08 03:40:20;;;;;;;0.10;0.10;;;2.30;99.90;;;;;;4986814;28;20045;-91
2024/02/08 03:42:46;;;;;;;0.10;0.10;;;;;;;;;;4987175;28;20026;-92
2024/02/08 03:45:13;;;;;;;0.10;0.10;;;;;;;;;;4991973;28;20040;-91
2024/02/08 03:47:39;;;;;;;0.10;0.10;;;;;;;;;;4987954;28;20492;-91
2024/02/08 03:50:05;;;;;;;0.00;0.00;;;;;;;;;;4979690;28;20509;-91
2024/02/08 03:52:31;;;;;;;0.10;0.10;;;;;;;;;;4988800;28;20900;-90
2024/02/08 03:54:58;;;;;;;0.05;0.05;;;;;;;;;;4986760;28;20480;-91
2024/02/08 03:57:23;;;;;;;0.00;0.00;;;;;;;;;;4982188;28;20038;-90
2024/02/08 03:59:52;;;;;;;0.00;0.00;;;2.50;99.90;;;;;;4986342;28;20042;-91
2024/02/08 04:02:21;;;;;;;0.10;0.10;;;2.50;99.90;;;;;;4984495;28;20042;-87
2024/02/08 04:04:53;;;;;;;0.10;0.10;;;;;;;;;;4985097;28;21164;-92
2024/02/08 04:07:22;;;;;;;0.10;0.10;;;2.40;99.90;;;;;;4980346;28;20173;-88
2024/02/08 04:09:55;;;;;;;0.00;0.00;;;2.50;99.90;;;;;;4985404;28;20034;-90
2024/02/08 04:53:55;;;;;;;0.10;0.10;;;;;;;;;;4985681;28;20126;-91
2024/02/08 04:56:21;;;;;;;0.10;0.10;;;3.30;99.90;;;;;;4988252;28;20129;-91
2024/02/08 04:58:47;;;;;;;0.08;0.08;;;;;;;;;;4987193;28;20036;-91
2024/02/08 05:01:13;;;;;;;0.10;0.10;;;;;;;;;;4982842;28;20535;-91
2024/02/08 05:03:42;;;;;;;0.00;0.00;;;2.30;99.90;;;;;;4988664;28;20125;-90
2024/02/08 05:06:18;;;;;;;0.10;0.10;;;2.40;99.90;;;;;;4985087;28;20206;-90
2024/02/08 05:08:45;;;;;;;0.10;0.10;;;2.60;99.90;;;;;;4981157;28;20814;-91
2024/02/08 05:11:14;;;;;;;0.10;0.10;;;;;;;;;;4985957;28;20278;-91
2024/02/08 05:13:50;;;;;;;0.10;0.10;;;2.90;99.90;;;;;;4986741;28;20029;-91
2024/02/08 05:16:16;;;;;;;0.00;0.00;;;;;;;;;;5001655;28;20030;-91
2024/02/08 05:18:46;;;;;;;0.10;0.10;;;2.70;99.90;;;;;;4981233;28;20460;-91
2024/02/08 05:21:12;;;;;;;;;;;2.70;99.90;;;;;;4984960;28;20521;-91
2024/02/08 05:23:38;;;;;;;0.00;0.00;;;;;;;;;;4987431;28;20344;-91
2024/02/08 05:26:06;;;;;;;0.10;0.10;;;2.60;99.90;;;;;;4985650;28;20032;-90
2024/02/08 05:28:33;;;;;;;0.10;0.10;;;;;;;;;;4979454;28;20030;-91
2024/02/08 05:30:59;;;;;;;0.00;0.00;;;;;;;;;;4992156;28;20033;-90
2024/02/08 05:33:29;;;;;;;0.10;0.10;;;;;;;;;;4985643;28;20508;-92
2024/02/08 05:35:56;;;;;;;0.10;0.10;;;;;;;;;;4989393;28;20030;-91
2024/02/08 05:38:22;;;;;;;0.00;0.00;;;;;;;;;;4990244;28;20045;-91
2024/02/08 05:40:51;;;;;;;0.10;0.10;;;;;;;;;;4987770;28;20412;-91
2024/02/08 05:43:17;;;;;;;0.10;0.10;;;;;;;;;;4985852;28;20165;-92
2024/02/08 05:45:43;;;;;;;0.10;0.10;;;;;;;;;;4987341;28;20125;-92
2024/02/08 05:48:10;;;;;;;0.10;0.10;;;;;;;;;;4995665;28;20038;-91
2024/02/08 05:50:36;;;;;;;0.10;0.10;;;;;;;;;;4984644;28;20157;-91
2024/02/08 05:53:06;;;;;;;0.03;0.03;;;2.40;99.90;;;;;;4982305;28;20073;-92
2024/02/08 05:55:34;;;;;;;;;;;2.40;99.90;;;;;;4986212;28;20042;-91
2024/02/08 05:58:03;;;;;;;0.10;0.10;;;;;;;;;;4988196;28;20393;-91
2024/02/08 06:00:35;;;;;;;0.10;0.10;;;;;;;;;;4988686;28;20022;-91
2024/02/08 06:03:03;;;;;;;0.10;0.10;;;;;;;;;;4988902;28;20041;-92
2024/02/08 06:05:30;;;;;;;0.08;0.08;;;;;;;;;;4980016;28;20027;-92
2024/02/08 06:07:56;;;;;;;0.10;0.10;;;;;;;;;;4988646;28;20034;-92
2024/02/08 06:10:50;;;;;;;0.00;0.00;;;;;;;;;;4989954;28;20019;-91
2024/02/08 06:13:16;;;;;;;0.00;0.00;;;;;;;;;;4982867;28;20113;-92
2024/02/08 06:15:50;;;;;;;0.10;0.10;;;;;;;;;;4987477;28;20162;-91
2024/02/08 06:18:25;;;;;;;0.10;0.10;;;;;;;;;;4982238;28;20102;-93
2024/02/08 06:21:12;;;;;;;0.10;0.10;;;;;;;;;;4986860;28;20168;-91
2024/02/08 06:23:43;;;;;;;0.10;0.10;;;;;;;;;;4988831;28;20489;-91
2024/02/08 06:28:41;;;;;;;0.10;0.10;;;;;;;;;;4985626;28;20685;-91
2024/02/08 06:31:07;;;;;;;0.05;0.05;;;;;;;;;;4986593;28;20149;-93
2024/02/08 06:34:08;;;;;;;0.10;0.10;;;;;;;;;;4985765;28;20465;-93
2024/02/08 06:36:30;;;;;;;0.10;0.10;;;;;;;;;;4988363;28;20034;-91
2024/02/08 06:38:56;;;;;;;0.10;0.10;;;;;;;;;;4991112;28;20031;-92
2024/02/08 06:41:51;;;;;;;0.10;0.10;;;;;;;;;;4990264;28;20041;-92
2024/02/08 06:47:18;;;;;;;0.10;0.10;;;;;;;;;;4992254;28;20100;-91
2024/02/08 07:41:55;;;;;;;0.10;0.10;;;;;;;;;;4986301;28;20041;-92
2024/02/08 07:44:30;;;;;;;0.10;0.10;;;;;;;;;;4991406;28;20026;-91
2024/02/08 07:46:56;;;;;;;0.03;0.03;;;;;;;;;;4996554;28;20070;-92
2024/02/08 07:49:41;;;;;;;0.10;0.10;;;;;;;;;;4987725;28;20061;-91
2024/02/08 07:52:29;;;;;;;0.10;0.10;;;;;;;;;;4990470;28;20033;-92
2024/02/08 07:57:46;;;;;;;0.10;0.10;;;;;;;;;;4992778;28;20033;-91
2024/02/08 08:00:32;;;;;;;0.10;0.10;;;;;;;;;;4988777;28;20030;-92
2024/02/08 08:02:58;;;;;;;0.10;0.10;;;;;;;;;;4987884;28;20034;-93
2024/02/08 08:05:23;;;;;;;0.10;0.10;;;;;;;;;;4991621;28;20547;-91
2024/02/08 08:07:59;;;;;;;0.10;0.10;;;;;;;;;;4992637;28;20026;-92
2024/02/08 08:10:33;;;;;;;0.10;0.10;;;;;;;;;;4992475;28;20061;-92
2024/02/08 08:13:06;;;;;;;0.10;0.10;;;;;;;;;;4993793;28;20037;-91
2024/02/08 08:15:35;;;;;;;0.10;0.10;;;;;;;;;;4989101;28;20465;-91
2024/02/08 08:18:02;;;;;;;0.10;0.10;;;;;;;;;;4999808;28;20473;-92
2024/02/08 08:20:56;;;;;;;0.10;0.10;;;;;;;;;;4990720;28;20030;-92
2024/02/08 08:23:28;;;;;;;0.08;0.08;;;;;;;;;;4993738;28;20018;-91
2024/02/08 08:26:00;;;;;;;0.10;0.10;;;;;;;;;;4988219;28;20042;-92
2024/02/08 08:31:00;;;;;;;0.10;0.10;;;;;;;;;;5006140;28;20033;-92
2024/02/08 08:36:28;;;;;;;0.10;0.10;;;;;;;;;;4994117;28;20169;-91
2024/02/08 08:39:29;;;;;;;0.10;0.10;;;;;;;;;;4989094;28;20041;-92
2024/02/08 08:41:46;;;;;;;0.10;0.10;;;;;;;;;;4992883;28;20027;-92
2024/02/08 08:44:12;;;;;;;0.00;0.00;;;;;;;;;;4992213;28;20057;-90
2024/02/08 08:46:41;;;;;;;0.10;0.10;;;;;;;;;;4993383;28;20528;-92
2024/02/08 08:49:07;;;;;;;0.10;0.10;;;;;;;;;;4991725;28;20031;-92
2024/02/08 08:51:33;;;;;;;0.10;0.10;;;;;;;;;;4993364;28;20037;-92
2024/02/08 08:54:14;;;;;;;0.05;0.05;;;;;;;;;;4993639;28;20045;-91
2024/02/08 08:56:40;;;;;;;0.10;0.10;;;;;;;;;;4992845;28;20092;-92
2024/02/08 08:59:07;;;;;;;0.10;0.10;;;;;;;;;;4994753;28;20064;-92
2024/02/08 09:01:36;;;;;;;0.00;0.00;;;;;;;;;;4993267;28;20030;-91
2024/02/08 09:06:47;;;;;;;0.10;0.10;;;;;;;;;;4995091;28;20096;-92
2024/02/08 09:09:38;;;;;;;0.08;0.08;;;;;;;;;;4996260;28;20022;-92
2024/02/08 09:12:14;;;;;;;0.00;0.00;;;;;;;;;;5014801;28;20022;-94
2024/02/08 09:14:53;;;;;;;0.00;0.00;;;;;;;;;;5011753;28;20091;-92
2024/02/08 09:17:25;;;;;;;0.10;0.10;;;;;;;;;;4995534;28;20029;-93
2024/02/08 09:19:51;;;;;;;0.10;0.10;;;;;;;;;;4992345;28;20037;-91
2024/02/08 09:22:20;;;;;;;0.10;0.10;;;;;;;;;;4982605;28;20452;-91
2024/02/08 09:24:46;;;;;;;0.10;0.10;;;;;;;;;;4987189;28;20037;-90
2024/02/08 09:27:19;;;;;;;0.00;0.00;;;;;;;;;;4994036;28;20034;-91
2024/02/08 09:29:56;;;;;;;0.10;0.10;;;;;;;;;;4994223;28;20026;-92
2024/02/08 09:35:13;;;;;;;0.10;0.10;;;;;;;;;;4992882;28;20045;-91
2024/02/08 09:37:46;;;;;;;0.00;0.00;;;;;;;;;;4994512;28;20036;-93
2024/02/08 09:42:56;;;;;;;0.10;0.10;;;;;;;;;;4988000;28;20042;-90
2024/02/08 09:48:06;;;;;;;0.00;0.00;;;5.40;99.90;;;;;;4995134;28;20040;-91
2024/02/08 09:50:47;;;;;;;0.08;0.08;;;;;;;;;;5002558;28;20504;-92
2024/02/08 09:53:19;;;;;;;0.10;0.10;;;;;;;;;;4988852;28;20033;-93
2024/02/08 09:55:55;;;;;;;0.10;0.10;;;;;;;;;;4987222;28;20038;-92
2024/02/08 09:58:39;;;;;;;0.10;0.10;;;;;;;;;;4986994;28;20026;-91
2024/02/08 10:01:21;;;;;;;0.10;0.10;;;;;;;;;;4989163;28;20125;-92
2024/02/08 10:04:03;;;;;;;0.10;0.10;;;;;;;;;;4986144;28;20030;-92
2024/02/08 10:06:38;;;;;;;0.10;0.10;;;;;;;;;;4989194;28;20061;-92
2024/02/08 10:09:53;;;;;;;0.00;0.00;;;;;;;;;;4991875;28;20053;-93
2024/02/08 10:11:59;;;;;;;0.10;0.10;;;;;;;;;;4985252;28;20026;-92
2024/02/08 10:14:32;;;;;;;0.03;0.03;;;;;;;;;;4988178;28;20033;-92
2024/02/08 10:17:00;;;;;;;0.10;0.10;;;;;;;;;;4986266;28;20030;-93
2024/02/08 10:22:02;;;;;;;0.10;0.10;;;;;;;;;;4990447;28;20117;-92
2024/02/08 10:26:17;;;;;;;0.10;0.10;;;;;;;;;;4988739;28;20030;-93
2024/02/08 10:27:23;;;;;;;0.10;0.10;;;;;;;;;;4993918;28;20527;-91
2024/02/08 10:30:05;;;;;;;0.10;0.10;;;;;;;;;;4994431;28;20031;-92
2024/02/08 10:32:34;;;;;;;0.10;0.10;;;;;;;;;;4991120;28;20038;-92
2024/02/08 10:35:13;;;;;;;0.10;0.10;;;;;;;;;;4990523;28;20058;-92
2024/02/08 10:37:53;;;;;;;0.10;0.10;;;;;;;;;;4991142;28;20693;-92
2024/02/08 10:40:28;;;;;;;0.10;0.10;;;;;;;;;;4992734;28;20026;-93
2024/02/08 10:42:58;;;;;;;0.10;0.10;;;;;;;;;;4992996;28;20041;-92
2024/02/08 10:45:25;;;;;;;0.10;0.10;;;;;;;;;;4992290;28;20055;-91
2024/02/08 10:47:59;;;;;;;0.00;0.00;;;;;;;;;;4989608;28;20027;-92
2024/02/08 10:50:27;;;;;;;0.10;0.10;;;;;;;;;;4991546;28;20029;-92
2024/02/08 10:53:00;;;;;;;0.10;0.10;;;7.20;99.90;;;;;;4993521;28;20035;-93
2024/02/08 10:55:39;;;;;;;0.10;0.10;;;;;;;;;;4993801;28;20030;-92
2024/02/08 11:03:14;;;;;;;0.10;0.10;;;;;;;;;;4994476;28;20072;-92
2024/02/08 11:08:33;;;;;;;0.10;0.10;;;;;;;;;;4994365;28;20027;-93
2024/02/08 11:11:03;;;;;;;0.10;0.10;;;7.30;99.90;;;;;;4993534;28;20412;-93
2024/02/08 11:13:37;;;;;;;0.10;0.10;;;;;;;;;;4993151;28;20018;-93
2024/02/08 11:16:19;;;;;;;0.10;0.10;;;;;;;;;;4993198;28;20027;-91
2024/02/08 11:18:47;;;;;;;0.10;0.10;;;;;;;;;;4993133;28;20636;-91
2024/02/08 11:21:18;;;;;;;0.10;0.10;;;;;;;;;;4989494;28;20058;-92
2024/02/08 11:23:51;;;;;;;0.10;0.10;;;;;;;;;;4992723;28;20824;-91
2024/02/08 11:26:25;;;;;;;0.10;0.10;;;;;;;;;;4992905;28;20161;-91
2024/02/08 11:29:01;;;;;;;0.10;0.10;;;7.20;99.90;;;;;;4987294;28;20535;-92
2024/02/08 11:31:32;;;;;;;0.00;0.00;;;;;;;;;;4986274;28;20504;-91
2024/02/08 17:35:03;;;;;;;0.00;0.00;;;;;;;;;;4986924;28;20047;-93
2024/02/08 17:37:44;;;;;;;0.00;0.00;;;;;;;;;;4989253;28;20543;-91
2024/02/08 17:40:16;;;;;;;0.10;0.10;;;;;;;;;;4969617;28;20449;-91
2024/02/08 17:42:46;;;;;;;0.10;0.10;;;3.10;99.90;;;;;;4969961;28;20041;-91
2024/02/08 20:54:12;;;;;;;0.00;0.00;;;;;;;;;;4966723;28;20425;-94
2024/02/08 20:56:38;;;;;;;0.10;0.10;;;;;;;;;;4967310;28;20031;-95
2024/02/08 20:59:07;;;;;;;0.00;0.00;;;;;;;;;;4963865;28;20103;-93
2024/02/08 21:30:06;;;;;;;0.08;0.08;;;;;;;;;;5011743;28;20031;-93
2024/02/08 21:32:32;;;;;;;0.10;0.10;;;;;;;;;;5011790;28;20031;-94
2024/02/08 21:34:58;;;;;;;0.10;0.10;;;;;;;;;;5010468;28;20010;-93
2024/02/08 21:37:24;;;;;;;0.10;0.10;;;;;;;;;;5010738;28;20046;-93
2024/02/08 21:39:50;;;;;;;0.08;0.08;;;;;;;;;;5008240;28;20031;-94
2024/02/08 21:42:18;;;;;;;0.10;0.10;;;;;;;;;;5013580;28;20046;-94
2024/02/08 21:44:46;;;;;;;0.00;0.00;;;;;;;;;;5013626;28;20041;-94
2024/02/08 21:47:12;;;;;;;0.10;0.10;;;;;;;;;;5012111;28;20169;-92
2024/02/08 21:49:38;;;;;;;0.10;0.10;;;;;;;;;;5011506;28;20023;-92
2024/02/08 21:52:07;;;;;;;0.10;0.10;;;;;;;;;;5009207;28;20030;-90
2024/02/08 21:54:33;;;;;;;0.10;0.10;;;;;;;;;;5010006;28;20132;-92
2024/02/08 21:57:03;;;;;;;0.10;0.10;;;;;;;;;;5010334;28;20097;-92
2024/02/08 21:59:30;;;;;;;0.10;0.10;;;;;;;;;;5010076;28;20037;-91
2024/02/08 22:01:56;;;;;;;0.10;0.10;;;3.60;99.90;;;;;;5007293;28;20037;-92
2024/02/08 22:04:22;;;;;;;0.00;0.00;;;;;;;;;;5009483;28;20059;-94
2024/02/08 22:06:48;;;;;;;0.10;0.10;;;;;;;;;;5007446;28;20073;-93
2024/02/08 22:09:14;;;;;;;0.10;0.10;;;;;;;;;;5007983;28;20034;-90
2024/02/08 22:11:53;;;;;;;0.10;0.10;;;3.60;99.90;;;;;;5011357;28;20026;-93
2024/02/08 22:14:27;;;;;;;0.10;0.10;;;3.90;99.90;;;;;;5012564;28;20035;-92
2024/02/08 22:16:54;;;;;;;0.10;0.10;;;;;;;;;;5010479;28;20007;-91
2024/02/08 22:19:22;;;;;;;0.10;0.10;;;;;;;;;;5010087;28;20010;-91
2024/02/08 22:21:49;;;;;;;0.00;0.00;;;;;;;;;;5007801;28;20010;-91
2024/02/08 22:24:15;;;;;;;0.00;0.00;;;;;;;;;;5010158;28;20057;-89
2024/02/08 22:26:51;;;;;;;0.10;0.10;;;3.90;99.90;;;;;;5008890;28;20030;-93
2024/02/08 22:29:18;;;;;;;0.00;0.00;;;;;;;;;;5007940;28;20050;-91
2024/02/08 22:31:46;;;;;;;0.10;0.10;;;;;;;;;;5010289;28;20046;-90
2024/02/08 22:34:12;;;;;;;0.10;0.10;;;;;;;;;;5012860;28;20026;-91
2024/02/08 22:36:38;;;;;;;0.00;0.00;;;;;;;;;;5009972;28;20042;-91
2024/02/08 22:39:12;;;;;;;0.00;0.00;;;3.90;99.90;;;;;;5008381;28;20031;-91
2024/02/08 22:41:44;;;;;;;0.10;0.10;;;4.00;99.90;;;;;;5010308;28;20045;-93
2024/02/08 22:44:10;;;;;;;0.08;0.08;;;;;;;;;;5006225;28;20023;-92
2024/02/08 22:46:36;;;;;;;0.10;0.10;;;;;;;;;;5011834;28;20065;-94
2024/02/08 22:49:02;;;;;;;0.10;0.10;;;;;;;;;;5016586;28;20030;-93
2024/02/08 22:51:32;;;;;;;0.10;0.10;;;4.00;99.90;;;;;;5010368;28;20081;-94
2024/02/08 22:53:58;;;;;;;0.10;0.10;;;;;;;;;;5012023;28;20018;-93
2024/02/08 22:56:24;;;;;;;0.10;0.10;;;;;;;;;;5011131;28;20082;-94
2024/02/08 22:58:50;;;;;;;0.00;0.00;;;;;;;;;;5009801;28;20038;-94
2024/02/08 23:01:33;;;;;;;0.10;0.10;;;;;;;;;;5011331;28;20010;-94
2024/02/08 23:04:00;;;;;;;0.10;0.10;;;;;;;;;;5008834;28;20057;-92
2024/02/08 23:06:29;;;;;;;0.10;0.10;;;;;;;;;;5009413;28;20022;-91
2024/02/08 23:08:55;;;;;;;0.00;0.00;;;;;;;;;;5009647;28;20053;-92
2024/02/08 23:11:23;;;;;;;0.10;0.10;;;;;;;;;;5009876;28;20042;-91
2024/02/08 23:13:49;;;;;;;0.00;0.00;;;;;;;;;;5007280;28;20035;-91
2024/02/08 23:16:17;;;;;;;0.10;0.10;;;;;;;;;;5015118;28;20050;-91
2024/02/08 23:18:44;;;;;;;0.00;0.00;;;;;;;;;;5008293;28;20029;-92
2024/02/08 23:21:10;;;;;;;0.05;0.05;;;;;;;;;;5015888;28;20094;-91
2024/02/08 23:23:38;;;;;;;0.05;0.05;;;;;;;;;;5013797;28;20050;-92
2024/02/08 23:26:04;;;;;;;0.10;0.10;;;;;;;;;;5014374;28;20053;-92
2024/02/08 23:28:30;;;;;;;0.10;0.10;;;;;;;;;;5014980;28;20051;-91
2024/02/08 23:30:56;;;;;;;0.10;0.10;;;;;;;;;;5012461;28;20028;-93
2024/02/08 23:33:22;;;;;;;0.10;0.10;;;;;;;;;;5012914;28;20485;-90
2024/02/08 23:35:49;;;;;;;0.00;0.00;;;;;;;;;;5018407;28;20018;-91
2024/02/08 23:38:20;;;;;;;0.00;0.00;;;;;;;;;;5019346;28;20030;-94
2024/02/08 23:40:47;;;;;;;0.10;0.10;;;;;;;;;;5022185;28;20022;-90
2024/02/08 23:43:14;;;;;;;0.10;0.10;;;;;;;;;;5021016;28;20061;-93
2024/02/08 23:45:40;;;;;;;0.10;0.10;;;;;;;;;;5014312;28;20102;-94
2024/02/08 23:48:07;;;;;;;0.00;0.00;;;;;;;;;;5014275;28;20041;-93
2024/02/08 23:50:33;;;;;;;0.10;0.10;;;;;;;;;;5015153;28;20034;-92
2024/02/08 23:53:00;;;;;;;0.10;0.10;;;4.70;99.90;;;;;;5015456;28;20034;-91
2024/02/08 23:55:27;;;;;;;0.08;0.08;;;;;;;;;;5015460;28;20086;-91
2024/02/08 23:57:53;;;;;;;0.10;0.10;;;;;;;;;;5016410;28;20013;-91
